KCLM/CLM METAR and TAF weather

Enter ICAO airport designator
Station Type Date Time Source
KCLM METAR 2021/07/29 00:53 UTC NOAA

KCLM 290053Z AUTO 30012G18KT 10SM CLR 23/13 A3010 RMK AO2 SLP193 T02280128


Station Type Date Time Source
KCLM Decoded METAR 2021/07/29 00:53 UTC NOAA

PORT ANGELES FAIRCHILD INTERNATIONAL , WA, United States (KCLM) 48-07N 123-30W 85M
Jul 28, 2021 - 08:53 PM EDT / 2021.07.29 0053 UTC
Wind: from the WNW (300 degrees) at 14 MPH (12 KT) gusting to 21 MPH (18 KT):0
Visibility: 10 mile(s):0
Sky conditions: clear
Temperature: 73.0 F (22.8 C)
Dew Point: 55.0 F (12.8 C)
Relative Humidity: 53%
Pressure (altimeter): 30.1 in. Hg (1019 hPa)
ob: KCLM 290053Z AUTO 30012G18KT 10SM CLR 23/13 A3010 RMK AO2 SLP193 T02280128
cycle: 1

Station Type Date Time Source
KCLM TAF 2021/07/28 18:36 UTC NOAA

TAF KCLM 281733Z 2818/2918 35008KT P6SM SCT250
FM290200 29009KT P6SM SCT250

Example: see airport list